createdAt,value
2023-02-22T00:01:40.992Z,20.83
2023-02-22T00:04:10.235Z,20.20
2023-02-22T00:06:36.784Z,21.60
2023-02-22T00:09:03.391Z,21.05
2023-02-22T00:11:29.907Z,21.98
2023-02-22T00:13:56.426Z,19.77
2023-02-22T00:16:23.819Z,23.45
2023-02-22T00:18:50.991Z,22.05
2023-02-22T00:21:18.028Z,21.08
2023-02-22T00:23:47.456Z,19.63
2023-02-22T00:26:16.695Z,22.20
2023-02-22T00:28:43.523Z,19.13
2023-02-22T00:31:10.048Z,22.52
2023-02-22T00:33:38.967Z,19.48
2023-02-22T00:36:06.093Z,20.65
2023-02-22T00:38:32.553Z,23.33
2023-02-22T00:40:59.104Z,19.83
2023-02-22T00:43:25.621Z,20.83
2023-02-22T00:45:52.212Z,21.17
2023-02-22T00:48:18.783Z,19.48
2023-02-22T00:50:45.686Z,22.33
2023-02-22T00:53:12.187Z,19.80
2023-02-22T00:55:38.914Z,22.00
2023-02-22T00:58:06.682Z,20.55
2023-02-22T01:00:39.097Z,20.83
2023-02-22T01:03:07.807Z,18.50
2023-02-22T01:05:35.072Z,20.67
2023-02-22T01:08:03.194Z,19.55
2023-02-22T01:10:31.022Z,21.83
2023-02-22T01:12:58.715Z,18.98
2023-02-22T01:15:27.411Z,19.48
2023-02-22T01:17:54.512Z,19.52
2023-02-22T01:20:22.515Z,21.88
2023-02-22T01:22:50.474Z,18.65
2023-02-22T01:25:23.243Z,16.55
2023-02-22T01:27:50.662Z,20.35
2023-02-22T01:30:22.014Z,22.13
2023-02-22T01:32:48.579Z,18.90
2023-02-22T01:35:19.040Z,18.42
2023-02-22T01:37:45.887Z,19.40
2023-02-22T01:40:18.347Z,17.33
2023-02-22T01:42:45.066Z,19.35
2023-02-22T01:45:29.665Z,18.63
2023-02-22T01:48:00.161Z,17.67
2023-02-22T01:50:27.697Z,18.08
2023-02-22T01:52:54.565Z,18.33
2023-02-22T01:55:21.303Z,15.90
2023-02-22T01:57:48.432Z,16.10
2023-02-22T02:00:17.705Z,16.65
2023-02-22T02:02:48.033Z,17.33
2023-02-22T02:05:14.903Z,16.88
2023-02-22T02:07:41.614Z,19.13
2023-02-22T02:10:12.722Z,16.08
2023-02-22T02:12:40.222Z,18.52
2023-02-22T02:15:30.574Z,18.52
2023-02-22T02:18:03.381Z,13.68
2023-02-22T02:20:41.070Z,16.20
2023-02-22T02:23:13.632Z,14.60
2023-02-22T02:25:58.841Z,16.65
2023-02-22T02:29:07.164Z,14.77
2023-02-22T02:31:33.614Z,13.88
2023-02-22T02:34:12.955Z,15.80
2023-02-22T02:37:09.834Z,11.00
2023-02-22T02:39:47.899Z,14.85
2023-02-22T02:42:20.221Z,14.02
2023-02-22T02:44:56.154Z,14.63
2023-02-22T02:47:29.088Z,13.88
2023-02-22T02:50:04.512Z,15.13
2023-02-22T02:52:34.053Z,14.30
2023-02-22T02:55:03.875Z,16.15
2023-02-22T02:57:30.550Z,16.13
2023-02-22T02:59:57.039Z,14.75
2023-02-22T03:02:42.019Z,13.98
2023-02-22T03:05:23.701Z,11.38
2023-02-22T03:08:08.738Z,11.10
2023-02-22T03:11:03.433Z,9.38
2023-02-22T03:13:39.175Z,10.05
2023-02-22T03:16:43.406Z,11.68
2023-02-22T03:19:36.832Z,8.68
2023-02-22T03:22:06.105Z,9.82
2023-02-22T03:25:00.546Z,12.38
2023-02-22T03:27:34.523Z,9.95
2023-02-22T03:30:07.091Z,10.45
2023-02-22T03:32:39.199Z,8.05
2023-02-22T03:35:18.078Z,9.45
2023-02-22T03:37:48.684Z,10.25
2023-02-22T03:40:32.924Z,9.70
2023-02-22T03:43:07.354Z,9.57
2023-02-22T03:45:34.620Z,10.73
2023-02-22T03:48:08.255Z,9.45
2023-02-22T03:50:36.568Z,10.23
2023-02-22T03:53:03.545Z,9.15
2023-02-22T03:55:30.590Z,9.00
2023-02-22T03:57:59.786Z,8.50
2023-02-22T04:00:28.833Z,8.52
2023-02-22T04:02:55.498Z,9.85
2023-02-22T04:05:22.421Z,9.27
2023-02-22T04:07:48.919Z,10.10
2023-02-22T04:10:16.377Z,10.27
2023-02-22T04:12:42.901Z,8.75
2023-02-22T04:15:12.866Z,9.00
2023-02-22T04:17:39.386Z,7.53
2023-02-22T04:20:06.515Z,8.98
2023-02-22T04:22:33.124Z,8.98
2023-02-22T04:24:59.645Z,9.38
2023-02-22T04:27:26.166Z,9.45
2023-02-22T04:29:52.793Z,10.77
2023-02-22T04:32:19.306Z,9.15
2023-02-22T04:34:45.968Z,8.13
2023-02-22T04:37:12.444Z,8.57
2023-02-22T04:39:38.964Z,8.15
2023-02-22T04:42:05.632Z,8.23
2023-02-22T04:44:32.391Z,9.23
2023-02-22T04:46:58.891Z,8.85
2023-02-22T04:49:26.088Z,5.57
2023-02-22T04:51:52.612Z,9.45
2023-02-22T04:54:19.111Z,8.90
2023-02-22T04:56:45.631Z,8.00
2023-02-22T04:59:12.156Z,8.68
2023-02-22T05:01:39.282Z,7.80
2023-02-22T05:04:07.139Z,9.60
2023-02-22T05:06:33.993Z,8.45
2023-02-22T05:09:00.550Z,8.73
2023-02-22T05:11:27.131Z,8.25
2023-02-22T05:13:53.660Z,8.63
2023-02-22T05:16:20.225Z,9.07
2023-02-22T05:18:46.791Z,9.23
2023-02-22T05:21:13.415Z,8.32
2023-02-22T05:23:40.002Z,9.45
2023-02-22T05:26:06.570Z,11.07
2023-02-22T05:28:33.177Z,10.82
2023-02-22T05:30:59.749Z,9.75
2023-02-22T05:33:26.316Z,9.60
2023-02-22T05:35:52.883Z,9.68
2023-02-22T05:38:19.408Z,9.18
2023-02-22T05:40:45.922Z,7.75
2023-02-22T05:43:12.467Z,8.20
2023-02-22T05:45:38.994Z,8.30
2023-02-22T05:48:05.639Z,7.75
2023-02-22T05:50:32.515Z,7.22
2023-02-22T05:52:59.220Z,8.57
2023-02-22T05:55:25.891Z,7.80
2023-02-22T05:57:53.157Z,8.35
2023-02-22T06:00:21.212Z,9.45
2023-02-22T06:02:47.877Z,7.90
2023-02-22T06:05:14.453Z,7.10
2023-02-22T06:07:41.015Z,9.40
2023-02-22T06:10:07.677Z,7.85
2023-02-22T06:12:34.252Z,7.75
2023-02-22T06:15:00.804Z,7.88
2023-02-22T06:17:27.514Z,8.85
2023-02-22T06:19:54.036Z,7.38
2023-02-22T06:22:20.591Z,6.90
2023-02-22T06:24:47.113Z,8.93
2023-02-22T06:27:13.656Z,7.55
2023-02-22T06:29:44.160Z,6.82
2023-02-22T06:32:10.709Z,7.32
2023-02-22T06:34:37.207Z,8.20
2023-02-22T06:37:03.719Z,8.93
2023-02-22T06:39:30.239Z,8.80
2023-02-22T06:41:56.821Z,6.82
2023-02-22T06:44:23.619Z,7.43
2023-02-22T06:46:51.012Z,7.60
2023-02-22T06:49:18.664Z,8.10
2023-02-22T06:51:46.495Z,8.82
2023-02-22T06:54:13.567Z,9.18
2023-02-22T06:56:40.074Z,9.52
2023-02-22T06:59:06.600Z,7.93
2023-02-22T07:01:33.138Z,9.82
2023-02-22T07:03:59.652Z,10.38
2023-02-22T07:06:26.148Z,9.70
2023-02-22T07:08:52.646Z,10.00
2023-02-22T07:11:19.249Z,9.40
2023-02-22T07:13:46.054Z,9.73
2023-02-22T07:16:12.599Z,9.82
2023-02-22T07:18:39.128Z,10.73
2023-02-22T07:21:06.391Z,11.15
2023-02-22T07:23:33.135Z,12.10
2023-02-22T07:26:00.892Z,10.90
2023-02-22T07:28:27.439Z,12.43
2023-02-22T07:30:54.017Z,12.68
2023-02-22T07:33:20.590Z,11.95
2023-02-22T07:35:49.314Z,12.38
2023-02-22T07:38:18.185Z,11.85
2023-02-22T07:40:45.433Z,12.63
2023-02-22T07:43:26.941Z,11.32
2023-02-22T07:45:55.778Z,12.70
2023-02-22T07:48:24.482Z,10.50
2023-02-22T07:50:51.189Z,8.77
2023-02-22T07:53:19.144Z,8.63
2023-02-22T07:55:46.173Z,9.80
2023-02-22T07:58:15.083Z,8.40
2023-02-22T08:00:42.184Z,9.15
2023-02-22T08:03:11.012Z,9.80
2023-02-22T08:05:39.705Z,8.77
2023-02-22T08:08:07.503Z,7.45
2023-02-22T08:10:35.418Z,9.00
2023-02-22T08:13:03.017Z,8.32
2023-02-22T08:15:35.788Z,8.07
2023-02-22T08:18:04.894Z,7.20
2023-02-22T08:20:31.800Z,8.48
2023-02-22T08:22:58.776Z,7.03
2023-02-22T08:25:27.914Z,7.20
2023-02-22T08:28:02.064Z,6.25
2023-02-22T08:30:30.283Z,6.20
2023-02-22T08:32:57.701Z,7.15
2023-02-22T08:35:25.139Z,6.78
2023-02-22T08:37:55.724Z,10.18
2023-02-22T08:40:25.372Z,8.07
2023-02-22T08:42:52.112Z,6.10
2023-02-22T08:45:18.674Z,6.65
2023-02-22T08:47:45.447Z,5.60
2023-02-22T08:50:32.735Z,7.05
2023-02-22T08:53:01.240Z,8.05
2023-02-22T08:55:31.976Z,6.32
2023-02-22T08:57:59.426Z,8.35
2023-02-22T09:00:27.090Z,7.30
2023-02-22T09:02:53.628Z,6.50
2023-02-22T09:05:20.427Z,5.38
2023-02-22T09:07:47.450Z,6.05
2023-02-22T09:10:20.840Z,5.55
2023-02-22T09:12:47.440Z,6.20
2023-02-22T09:15:15.251Z,5.68
2023-02-22T09:17:41.916Z,5.63
2023-02-22T09:20:09.683Z,5.95
2023-02-22T09:22:36.168Z,6.55
2023-02-22T09:25:16.004Z,6.18
2023-02-22T09:27:43.791Z,5.40
2023-02-22T09:30:27.539Z,5.82
2023-02-22T09:32:58.153Z,6.15
2023-02-22T09:35:25.244Z,6.38
2023-02-22T09:37:51.759Z,6.70
2023-02-22T09:40:19.028Z,7.07
2023-02-22T09:43:10.866Z,6.40
2023-02-22T09:46:11.326Z,5.97
2023-02-22T09:48:50.637Z,5.13
2023-02-22T09:51:18.354Z,5.63
2023-02-22T09:53:49.143Z,7.32
2023-02-22T09:56:19.783Z,6.43
2023-02-22T09:58:51.875Z,6.65
2023-02-22T10:01:48.085Z,6.30
2023-02-22T10:04:35.682Z,6.32
2023-02-22T10:07:35.488Z,7.00
2023-02-22T10:10:02.027Z,6.32
2023-02-22T10:12:37.989Z,7.28
2023-02-22T10:15:36.592Z,7.38
2023-02-22T10:18:21.685Z,6.82
2023-02-22T10:20:48.164Z,6.70
2023-02-22T10:23:38.361Z,6.88
2023-02-22T10:26:17.404Z,7.20
2023-02-22T10:28:54.885Z,6.78
2023-02-22T10:31:28.694Z,6.20
2023-02-22T10:33:59.764Z,7.22
2023-02-22T10:36:26.870Z,7.43
2023-02-22T10:39:29.737Z,9.10
2023-02-22T10:41:58.724Z,5.90
2023-02-22T10:44:25.296Z,6.20
2023-02-22T10:46:52.930Z,6.07
2023-02-22T10:49:23.212Z,5.53
2023-02-22T10:52:04.391Z,5.50
2023-02-22T10:54:39.599Z,4.63
2023-02-22T10:57:07.033Z,5.10
2023-02-22T10:59:39.948Z,5.28
2023-02-22T11:02:33.028Z,5.15
2023-02-22T11:07:33.160Z,4.47
2023-02-22T11:10:05.545Z,5.03
2023-02-22T11:12:34.636Z,6.03
2023-02-22T11:15:21.346Z,6.07
2023-02-22T11:17:53.900Z,5.57
2023-02-22T11:20:23.317Z,5.32
2023-02-22T11:22:53.398Z,5.10
2023-02-22T11:25:24.795Z,5.28
2023-02-22T11:27:53.100Z,4.70
2023-02-22T11:30:29.412Z,5.57
2023-02-22T11:33:01.453Z,4.38
2023-02-22T11:35:28.000Z,4.85
2023-02-22T11:38:15.842Z,4.63
2023-02-22T11:40:43.395Z,4.47
2023-02-22T11:43:20.424Z,5.35
2023-02-22T11:46:04.956Z,5.00
2023-02-22T11:48:37.606Z,4.80
2023-02-22T11:51:21.321Z,5.30
2023-02-22T11:54:16.671Z,5.03
2023-02-22T11:56:47.899Z,5.32
2023-02-22T11:59:43.931Z,5.28
2023-02-22T12:02:31.875Z,4.85
2023-02-22T12:05:04.513Z,4.70
2023-02-22T12:07:48.412Z,4.68
2023-02-22T12:10:43.038Z,5.15
2023-02-22T12:13:43.758Z,5.07
2023-02-22T12:16:31.224Z,5.25
2023-02-22T12:19:27.416Z,6.20
2023-02-22T12:21:58.155Z,5.80
2023-02-22T12:24:30.276Z,4.93
2023-02-22T12:27:05.685Z,4.95
2023-02-22T12:29:58.956Z,5.20
2023-02-22T12:32:48.458Z,5.45
2023-02-22T12:35:24.869Z,5.65
2023-02-22T12:38:04.114Z,5.90
2023-02-22T12:40:45.932Z,5.70
2023-02-22T12:43:28.355Z,6.00
2023-02-22T12:46:09.699Z,5.10
2023-02-22T12:48:45.710Z,5.82
2023-02-22T12:51:26.869Z,5.90
2023-02-22T12:54:10.423Z,6.10
2023-02-22T12:57:14.847Z,6.43
2023-02-22T12:59:49.191Z,6.40
2023-02-22T13:02:30.640Z,5.53
2023-02-22T13:04:57.585Z,6.15
2023-02-22T13:07:39.155Z,6.63
2023-02-22T13:10:39.317Z,7.68
2023-02-22T13:13:19.825Z,6.57
2023-02-22T13:16:08.066Z,6.75
2023-02-22T13:18:58.663Z,6.90
2023-02-22T13:21:36.487Z,6.65
2023-02-22T13:24:20.714Z,6.72
2023-02-22T13:27:03.688Z,6.57
2023-02-22T13:29:36.872Z,6.43
2023-02-22T13:32:21.669Z,6.28
2023-02-22T13:35:00.240Z,6.28
2023-02-22T13:37:56.474Z,6.50
2023-02-22T13:40:57.140Z,6.75
2023-02-22T13:43:59.016Z,6.32
2023-02-22T13:46:43.400Z,6.43
2023-02-22T13:49:15.954Z,6.75
2023-02-22T13:51:52.775Z,6.57
2023-02-22T13:54:37.616Z,6.32
2023-02-22T13:57:16.967Z,6.40
2023-02-22T13:59:43.552Z,6.75
2023-02-22T14:02:32.646Z,6.15
2023-02-22T14:04:59.247Z,6.72
2023-02-22T14:07:25.726Z,6.03
2023-02-22T14:09:54.134Z,5.88
2023-02-22T14:12:29.591Z,6.40
2023-02-22T14:15:26.530Z,6.57
2023-02-22T14:18:04.094Z,6.40
2023-02-22T14:23:33.643Z,6.20
2023-02-22T14:26:16.525Z,6.63
2023-02-22T14:29:22.941Z,6.00
2023-02-22T14:31:49.710Z,6.00
2023-02-22T14:34:22.590Z,7.38
2023-02-22T14:36:58.382Z,7.20
2023-02-22T14:39:34.141Z,6.47
2023-02-22T14:42:34.286Z,6.55
2023-02-22T14:45:14.591Z,6.70
2023-02-22T14:47:55.879Z,6.82
2023-02-22T14:50:27.230Z,6.93
2023-02-22T14:53:05.044Z,6.82
2023-02-22T14:55:37.509Z,6.38
2023-02-22T14:58:12.544Z,7.25
2023-02-22T15:00:40.664Z,6.38
2023-02-22T15:03:29.230Z,6.82
2023-02-22T15:05:55.869Z,6.65
2023-02-22T15:08:22.524Z,7.60
2023-02-22T15:10:51.424Z,7.03
2023-02-22T15:13:30.014Z,7.65
2023-02-22T15:16:04.459Z,7.22
2023-02-22T15:18:47.350Z,7.18
2023-02-22T15:21:16.494Z,8.02
2023-02-22T15:24:00.999Z,7.05
2023-02-22T15:26:49.011Z,7.20
2023-02-22T15:29:32.604Z,7.15
2023-02-22T15:31:59.202Z,7.78
2023-02-22T15:34:31.573Z,8.20
2023-02-22T15:37:18.710Z,7.60
2023-02-22T15:39:45.250Z,7.53
2023-02-22T15:42:14.934Z,7.57
2023-02-22T15:44:43.201Z,7.50
2023-02-22T15:47:17.029Z,7.15
2023-02-22T15:49:44.245Z,7.80
2023-02-22T15:52:20.813Z,8.50
2023-02-22T15:54:52.516Z,8.25
2023-02-22T15:57:23.331Z,7.72
2023-02-22T15:59:52.878Z,7.38
2023-02-22T16:02:30.037Z,7.47
2023-02-22T16:05:01.688Z,7.88
2023-02-22T16:07:28.850Z,8.30
2023-02-22T16:09:56.280Z,8.85
2023-02-22T16:12:25.715Z,8.77
2023-02-22T16:14:52.432Z,8.50
2023-02-22T16:17:21.849Z,8.45
2023-02-22T16:19:48.438Z,8.65
2023-02-22T16:22:36.456Z,9.10
2023-02-22T16:25:18.258Z,7.70
2023-02-22T16:27:58.690Z,8.00
2023-02-22T16:30:42.281Z,8.27
2023-02-22T16:33:10.417Z,8.98
2023-02-22T16:35:36.969Z,8.13
2023-02-22T16:38:06.355Z,8.27
2023-02-22T16:40:39.796Z,8.55
2023-02-22T16:43:08.786Z,9.48
2023-02-22T16:45:35.342Z,8.27
2023-02-22T16:48:11.372Z,8.68
2023-02-22T16:50:38.010Z,8.38
2023-02-22T16:53:04.628Z,9.75
2023-02-22T16:55:31.157Z,9.30
2023-02-22T16:57:58.447Z,9.85
2023-02-22T17:00:25.300Z,9.63
2023-02-22T17:02:51.848Z,10.13
2023-02-22T17:05:18.450Z,9.75
2023-02-22T17:07:45.041Z,9.50
2023-02-22T17:10:17.190Z,10.18
2023-02-22T17:12:46.895Z,10.63
2023-02-22T17:15:21.144Z,10.10
2023-02-22T17:17:48.884Z,10.82
2023-02-22T17:20:15.687Z,9.88
2023-02-22T17:22:43.110Z,11.50
2023-02-22T17:25:24.612Z,10.50
2023-02-22T17:27:51.647Z,11.30
2023-02-22T17:30:18.577Z,12.48
2023-02-22T17:32:45.100Z,13.70
2023-02-22T17:35:11.686Z,11.65
2023-02-22T17:37:38.306Z,13.90
2023-02-22T17:40:05.268Z,13.35
2023-02-22T17:42:31.796Z,12.60
2023-02-22T17:44:58.301Z,12.80
2023-02-22T17:47:25.358Z,14.25
2023-02-22T17:49:51.919Z,15.02
2023-02-22T17:52:18.463Z,14.65
2023-02-22T17:54:44.992Z,14.82
2023-02-22T17:57:12.720Z,14.60
2023-02-22T17:59:40.601Z,17.48
2023-02-22T18:02:07.313Z,17.02
2023-02-22T18:04:34.328Z,16.58
2023-02-22T18:07:00.813Z,16.75
2023-02-22T18:09:27.458Z,16.77
2023-02-22T18:11:53.956Z,16.60
2023-02-22T18:14:20.482Z,17.48
2023-02-22T18:16:47.760Z,18.05
2023-02-22T18:19:14.310Z,18.00
2023-02-22T18:21:40.846Z,17.63
2023-02-22T18:24:07.560Z,19.33
2023-02-22T18:26:34.778Z,18.35
2023-02-22T18:29:01.362Z,16.33
2023-02-22T18:31:27.911Z,17.00
2023-02-22T18:33:54.692Z,16.38
2023-02-22T18:36:21.874Z,18.08
2023-02-22T18:38:50.060Z,18.23
2023-02-22T18:41:18.741Z,19.25
2023-02-22T18:43:45.733Z,19.02
2023-02-22T18:46:18.087Z,18.63
2023-02-22T18:48:52.660Z,18.42
2023-02-22T18:51:19.223Z,19.40
2023-02-22T18:53:47.577Z,18.33
2023-02-22T18:56:17.841Z,17.83
2023-02-22T18:58:44.658Z,18.40
2023-02-22T19:01:18.512Z,18.88
2023-02-22T19:03:46.004Z,18.10
2023-02-22T19:06:14.179Z,18.50
2023-02-22T19:08:41.849Z,18.67
2023-02-22T19:11:11.556Z,19.02
2023-02-22T19:13:38.629Z,19.67
2023-02-22T19:16:06.745Z,18.05
2023-02-22T19:18:33.368Z,18.60
2023-02-22T19:21:01.881Z,18.98
2023-02-22T19:23:28.424Z,18.98
2023-02-22T19:25:55.143Z,19.92
2023-02-22T19:28:21.641Z,18.67
2023-02-22T19:30:48.239Z,19.52
2023-02-22T19:33:14.816Z,19.08
2023-02-22T19:35:41.327Z,20.10
2023-02-22T19:38:07.940Z,20.23
2023-02-22T19:40:34.457Z,21.05
2023-02-22T19:43:00.947Z,20.70
2023-02-22T19:45:27.543Z,20.25
2023-02-22T19:47:55.600Z,20.80
2023-02-22T19:50:22.793Z,20.17
2023-02-22T19:52:49.280Z,21.27
2023-02-22T19:55:15.907Z,20.45
2023-02-22T19:57:44.571Z,20.65
2023-02-22T20:00:12.207Z,20.13
2023-02-22T20:02:40.232Z,21.95
2023-02-22T20:05:08.847Z,20.90
2023-02-22T20:07:38.512Z,21.00
2023-02-22T20:10:06.324Z,21.25
2023-02-22T20:12:33.041Z,21.33
2023-02-22T20:14:59.608Z,21.30
2023-02-22T20:17:27.395Z,22.25
2023-02-22T20:19:54.220Z,22.58
2023-02-22T20:22:21.976Z,21.77
2023-02-22T20:24:48.735Z,21.63
2023-02-22T20:27:16.107Z,23.20
2023-02-22T20:29:42.653Z,22.45
2023-02-22T20:32:12.584Z,23.95
2023-02-22T20:34:39.361Z,22.08
2023-02-22T20:37:08.344Z,22.90
2023-02-22T20:39:34.888Z,22.42
2023-02-22T20:42:01.416Z,21.27
2023-02-22T20:44:28.107Z,22.55
2023-02-22T20:46:54.662Z,22.55
2023-02-22T20:49:21.252Z,22.02
2023-02-22T20:51:48.783Z,20.77
2023-02-22T20:54:15.685Z,21.48
2023-02-22T20:56:44.443Z,23.08
2023-02-22T20:59:13.873Z,23.13
2023-02-22T21:01:41.081Z,21.55
2023-02-22T21:04:09.001Z,21.48
2023-02-22T21:06:37.923Z,23.23
2023-02-22T21:09:05.806Z,22.70
2023-02-22T21:11:33.244Z,22.00
2023-02-22T21:14:00.704Z,22.50
2023-02-22T21:16:33.519Z,23.60
2023-02-22T21:19:03.197Z,22.33
2023-02-22T21:21:30.015Z,23.92
2023-02-22T21:23:58.379Z,22.77
2023-02-22T21:26:26.996Z,23.50
2023-02-22T21:28:54.800Z,21.05
2023-02-22T21:31:24.276Z,22.98
2023-02-22T21:33:52.823Z,21.88
2023-02-22T21:36:20.098Z,23.92
2023-02-22T21:38:48.372Z,22.13
2023-02-22T21:41:16.794Z,24.50
2023-02-22T21:43:44.076Z,23.73
2023-02-22T21:46:10.808Z,23.33
2023-02-22T21:48:38.268Z,23.88
2023-02-22T21:51:09.944Z,23.00
2023-02-22T21:53:36.445Z,24.50
2023-02-22T21:56:04.644Z,22.88
2023-02-22T21:58:31.367Z,24.58
2023-02-22T22:01:04.657Z,23.40
2023-02-22T22:03:31.219Z,23.13
2023-02-22T22:05:57.709Z,23.88
2023-02-22T22:08:24.188Z,23.60
2023-02-22T22:10:54.667Z,23.75
2023-02-22T22:13:26.674Z,23.58
2023-02-22T22:15:53.302Z,22.77
2023-02-22T22:18:19.831Z,22.75
2023-02-22T22:20:46.372Z,23.17
2023-02-22T22:23:12.879Z,21.63
2023-02-22T22:25:39.401Z,22.90
2023-02-22T22:28:07.005Z,20.98
2023-02-22T22:30:35.315Z,23.73
2023-02-22T22:33:02.007Z,21.83
2023-02-22T22:35:28.487Z,23.02
2023-02-22T22:37:55.033Z,22.23
2023-02-22T22:40:24.201Z,23.67
2023-02-22T22:42:58.432Z,23.02
2023-02-22T22:45:24.965Z,23.70
2023-02-22T22:47:51.631Z,24.15
2023-02-22T22:50:19.244Z,24.52
2023-02-22T22:52:46.406Z,21.90
2023-02-22T22:55:13.057Z,24.05
2023-02-22T22:57:40.396Z,24.42
2023-02-22T23:00:10.946Z,23.52
2023-02-22T23:02:37.509Z,25.25
2023-02-22T23:05:04.272Z,24.75
2023-02-22T23:07:30.777Z,24.25
2023-02-22T23:09:57.305Z,26.25
2023-02-22T23:12:23.868Z,24.08
2023-02-22T23:14:50.365Z,23.75
2023-02-22T23:17:16.980Z,23.20
2023-02-22T23:19:44.644Z,24.13
2023-02-22T23:22:11.483Z,23.67
2023-02-22T23:24:38.435Z,21.52
2023-02-22T23:27:05.614Z,23.00
2023-02-22T23:29:33.130Z,22.50
2023-02-22T23:31:59.917Z,23.70
2023-02-22T23:34:26.560Z,23.02
2023-02-22T23:36:53.117Z,23.40
2023-02-22T23:39:20.896Z,23.02
2023-02-22T23:41:55.700Z,23.98
2023-02-22T23:44:22.514Z,24.38
2023-02-22T23:46:50.147Z,24.35
2023-02-22T23:49:17.029Z,22.42
2023-02-22T23:51:43.943Z,24.67
2023-02-22T23:54:13.492Z,23.52
2023-02-22T23:56:40.986Z,25.23
2023-02-22T23:59:07.662Z,23.98
